• Join FlightAware (Why Join?)
  • Login
  • US Flag 
02:32PM EDT


 

Airport Tracker/Info


-or-


 

Live Flight TrackerFlight Track Log ✈ N855BC ✈ 05-Mar-2014 ✈ KPIE - KFXE

Flight Track Log - Related Links

Times and Time Zones

All times are in EST time to prevent confusion due to time zone crossing. See the N855BC flight status page for this flight to view local times or setup timezone preferences in your user account.

Time Position Orientation Groundspeed Altitude Reporting Facility
EST Latitude Longitude Course Direction KTS MPH feet Rate Location/Type
05:26PM 27.9333 -82.6833 227° Southwest 162 186 600  Level Tampa TRACON
05:28PM 27.8772 -82.7519 227° Southwest 166 191 5,000 2,160 Climbing Miami Center
05:29PM 27.8236 -82.7375 167° South 166 191 7,500 2,520 Climbing Miami Center
05:30PM 27.7678 -82.7275 171° South 190 219 10,100 2,460 Climbing Miami Center
05:31PM 27.6931 -82.7167 173° South 232 267 12,500 2,160 Climbing Miami Center
05:32PM 27.6303 -82.6667 145° Southeast 257 296 14,500 1,920 Climbing Miami Center
05:33PM 27.5639 -82.6069 141° Southeast 275 316 16,400 1,260 Climbing Miami Center
05:34PM 27.4892 -82.5447 144° Southeast 308 354 17,100 300 Climbing Miami Center
05:35PM 27.4083 -82.4800 145° Southeast 337 388 17,100  Level Miami Center
05:36PM 27.3211 -82.4103 145° Southeast 366 421 17,100 -60 Level Miami Center
05:37PM 27.2342 -82.3386 144° Southeast 377 434 17,000 -60 Descending Miami Center
05:38PM 27.1431 -82.2664 145° Southeast 390 449 17,000  Level Miami Center
05:39PM 27.0539 -82.1925 144° Southeast 395 455 17,000  Level Miami Center
05:40PM 26.9758 -82.1050 135° Southeast 395 455 17,000  Level Miami Center
05:41PM 26.9022 -82.0039 129° Southeast 405 466 17,000  Level Miami Center
05:42PM 26.8325 -81.9078 129° Southeast 405 466 17,000  Level Miami Center
05:43PM 26.7586 -81.8092 130° Southeast 413 475 17,000  Level Miami Center
05:44PM 26.6825 -81.7108 131° Southeast 413 475 17,000  Level Miami Center
05:45PM 26.6167 -81.6222 130° Southeast 413 475 17,000 -60 Level Miami Center
05:46PM 26.5425 -81.5264 131° Southeast 413 475 16,900 -600 Descending Miami Center
05:47PM 26.4683 -81.4283 130° Southeast 413 475 15,800 -1,080 Descending Miami Center
05:48PM 26.3942 -81.3325 131° Southeast 413 475 14,800 -960 Descending Miami Center
05:49PM 26.3358 -81.2586 131° Southeast 407 468 13,900 -1,440 Descending Miami Center
05:50PM 26.2514 -81.1467 130° Southeast 395 455 12,000 -2,100 Descending Miami Center
05:50PM 26.2172 -81.1036 131° Southeast 385 443 11,100 -2,400 Descending Miami Center
05:51PM 26.2031 -81.0894 138° Southeast 382 440 10,700 -2,040 Descending Miami Center
05:51PM 26.1789 -81.0514 125° Southeast 385 443 9,800 -1,860 Descending Miami Center
05:52PM 26.1383 -81.0083 136° Southeast 302 348 8,800 -1,740 Descending Miami Center
05:52PM 26.1183 -80.9822 130° Southeast 346 398 8,100 -1,920 Descending Miami Center
05:53PM 26.0817 -80.9533 145° Southeast 269 310 6,900 -1,320 Descending Miami Center
05:54PM 26.0200 -80.9094 147° Southeast 252 290 6,000 -660 Descending Miami Center
05:54PM 26.0039 -80.8906 133° Southeast 267 307 6,000 -120 Level Miami Center
05:55PM 25.9864 -80.8483 115° Southeast 250 288 5,900 -360 Descending Miami Center
05:55PM 25.9892 -80.8206 84° East 208 239 5,600 -1,020 Descending Miami Center
05:56PM 25.9967 -80.7678 81° East 262 302 4,900 -1,200 Descending Miami Center
05:56PM 26.0206 -80.7339 52° Northeast 220 253 4,400 -1,020 Descending Miami Center
05:57PM 26.0403 -80.7067 51° Northeast 250 288 3,900 -900 Descending Miami Center
05:57PM 26.0661 -80.6728 50° Northeast 220 253 3,500 -900 Descending Miami Center
05:58PM 26.0878 -80.6458 48° Northeast 259 298 3,000 -600 Descending Miami Center
05:58PM 26.1117 -80.6119 52° Northeast 242 278 2,900  Descending Miami Center
05:59PM 26.1333 -80.5825 51° Northeast 231 266 3,000  Climbing Miami Center
05:59PM 26.1528 -80.5531 54° Northeast 242 278 2,900 -420 Descending Miami Center
06:00PM 26.1600 -80.5186 77° East 243 280 2,600 -600 Descending Miami Center
06:00PM 26.1692 -80.4819 74° East 237 273 2,300 -420 Descending Miami Center
06:01PM 26.1700 -80.4425 89° East 225 259 2,200 -120 Descending Miami Center
06:02PM 26.1736 -80.3800 86° East 188 216 2,200  Level Miami Center
06:03PM 26.1811 -80.3269 81° East 164 189 2,200 -300 Level Miami Center
06:04PM 26.1822 -80.2808 88° East 137 158 1,600 -660 Descending Miami Center
06:05PM 26.1894 -80.2417 78° East 128 147 900 -660 Descending Miami Center
06:06PM 26.1944 -80.2047 81° East 115 132 300 -600 Descending Miami Center
06:08PM 26.1833 -80.1667 70° East  Level FlightAware Approximate
06:15PM 26.1973 -80.1707 70° East  Level Estimated